Terminal Aerodrome Forecast
Issued by NWS

Home | Current Version | Previous Version | Text Only | Print | Product List | Glossary Off
Versions: 1 2 3 4 5 6 7 8 9 10 11 12 13 14 15 16 17 18 19 20

102
FTUS43 KICT 301943 AAA
TAFRSL
TAF AMD
KRSL 301943Z 3020/0118 29015G22KT P6SM SCT025 BKN035
     FM010100 30010KT P6SM BKN035
     FM010600 32013KT P6SM OVC015
     FM011600 33015G23KT P6SM BKN025=

USA.gov is the U.S. government's official web portal to all federal, state and local government web resources and services.